< < Back
Terminal Aerodrome Forecast


Current Version              Previous Versions:   1  2  3  4  5  6  7  8  9  

Terminal Aerodrome Forecast

495
FTUS42 KTAE 011720
TAFABY
TAF
KABY 011720Z 0118/0218 20009KT P6SM SCT035
     FM011900 20010KT P6SM VCTS BKN040CB
     FM020000 17004KT P6SM BKN250
     FM021600 19005KT P6SM SCT040=

Latest METAR

021
SAUS70 KWBC 012100 RRK
MTRABY
METAR KABY 012053Z 23010KT 10SM BKN055 BKN075 BKN110 31/19 A2998 RMK AO2
SLP150 T03060189 56017


USA.gov is the U.S. government's official web portal to all federal, state and local government web resources and services.